Time;durP1;ratioP1;P1;durP2;ratioP2;P2;SDS_P1;SDS_P2;PMS_P1;PMS_P2;Temp;Humidity;BMP_temperature;BMP_pressure;BME280_temperature;BME280_humidity;BME280_pressure;Samples;Min_cycle;Max_cycle;Signal;HPM_P1;HPM_P2
2023/05/12 00:01:30;;;;;;;11.27;8.40;;;15.00;99.90;;;;;;4174733;28;20090;-66
2023/05/12 00:03:31;;;;;;;10.57;7.78;;;15.00;99.90;;;;;;4175975;28;20127;-66
2023/05/12 00:05:31;;;;;;;8.50;6.93;;;15.00;99.90;;;;;;4178972;28;20021;-66
2023/05/12 00:07:32;;;;;;;12.85;7.60;;;15.00;99.90;;;;;;4175164;28;20135;-66
2023/05/12 00:09:32;;;;;;;12.15;8.68;;;14.90;99.90;;;;;;4174553;28;20040;-66
2023/05/12 00:11:33;;;;;;;10.98;7.90;;;14.90;99.90;;;;;;4176895;28;20095;-66
2023/05/12 00:13:33;;;;;;;9.35;6.88;;;14.80;99.90;;;;;;4176108;28;20348;-66
2023/05/12 00:15:36;;;;;;;10.43;7.05;;;14.80;99.90;;;;;;4184238;28;20472;-65
2023/05/12 00:17:36;;;;;;;7.55;5.78;;;14.70;99.90;;;;;;4174509;28;20045;-65
2023/05/12 00:19:37;;;;;;;8.85;6.65;;;14.80;99.90;;;;;;4182407;28;20048;-66
2023/05/12 00:21:37;;;;;;;8.68;6.55;;;14.70;99.90;;;;;;4175378;28;20087;-66
2023/05/12 00:23:38;;;;;;;7.40;5.43;;;14.70;99.90;;;;;;4177204;28;20587;-65
2023/05/12 00:25:38;;;;;;;7.43;5.38;;;14.70;99.90;;;;;;4174895;28;20040;-66
2023/05/12 00:27:39;;;;;;;7.57;5.53;;;14.70;99.90;;;;;;4181709;28;20457;-65
2023/05/12 00:29:39;;;;;;;7.53;5.93;;;14.70;99.90;;;;;;4174893;28;20058;-65
2023/05/12 00:31:40;;;;;;;6.38;5.15;;;14.80;99.90;;;;;;4176014;28;20063;-65
2023/05/12 00:33:41;;;;;;;7.55;5.05;;;14.70;99.90;;;;;;4185868;28;20029;-65
2023/05/12 00:35:44;;;;;;;8.20;6.15;;;14.70;99.90;;;;;;4178566;28;20736;-66
2023/05/12 00:37:45;;;;;;;6.75;5.18;;;14.60;99.90;;;;;;4174570;28;20124;-66
2023/05/12 00:39:46;;;;;;;7.40;4.90;;;14.50;99.90;;;;;;4173648;28;20037;-66
2023/05/12 00:41:48;;;;;;;5.18;4.15;;;14.50;99.90;;;;;;4171462;28;20151;-66
2023/05/12 00:43:49;;;;;;;;;;;14.50;99.90;;;;;;4185690;28;20025;-66
2023/05/12 00:45:50;;;;;;;7.68;5.28;;;14.40;99.90;;;;;;4170757;28;19915;-66
2023/05/12 00:47:52;;;;;;;8.50;4.20;;;14.40;99.90;;;;;;4174533;28;20052;-66
2023/05/12 00:49:53;;;;;;;5.82;4.35;;;14.30;99.90;;;;;;4179912;28;20033;-66
2023/05/12 00:51:54;;;;;;;7.03;4.45;;;14.30;99.90;;;;;;4178627;28;20072;-66
2023/05/12 00:53:56;;;;;;;6.15;4.18;;;14.20;99.90;;;;;;4172307;28;20044;-66
2023/05/12 00:55:57;;;;;;;3.65;3.20;;;14.10;99.90;;;;;;4175759;28;20033;-65
2023/05/12 00:57:58;;;;;;;5.07;4.05;;;14.10;99.90;;;;;;4177160;28;20100;-65
2023/05/12 00:59:58;;;;;;;6.30;4.22;;;14.10;99.90;;;;;;4180995;28;20036;-66
2023/05/12 01:01:59;;;;;;;4.97;3.47;;;14.10;99.90;;;;;;4172054;28;20043;-65
2023/05/12 01:04:01;;;;;;;4.22;3.33;;;14.00;99.90;;;;;;4179505;28;20024;-65
2023/05/12 01:06:30;;;;;;;4.60;3.47;;;14.00;99.90;;;;;;4174817;28;20388;-66
2023/05/12 01:08:32;;;;;;;3.78;3.05;;;14.00;99.90;;;;;;4180317;28;20634;-65
2023/05/12 01:10:32;;;;;;;4.22;3.28;;;14.00;99.90;;;;;;4181912;28;20388;-66
2023/05/12 01:12:33;;;;;;;5.75;3.88;;;14.00;99.90;;;;;;4180514;28;20036;-65
2023/05/12 01:14:33;;;;;;;5.20;3.17;;;14.00;99.90;;;;;;4179803;28;20041;-66
2023/05/12 01:16:39;;;;;;;3.80;2.90;;;14.00;99.90;;;;;;4182553;28;20040;-66
2023/05/12 01:18:42;;;;;;;3.90;2.85;;;14.00;99.90;;;;;;4191959;28;20049;-65
2023/05/12 01:20:43;;;;;;;5.00;3.47;;;13.90;99.90;;;;;;4184222;28;20387;-66
2023/05/12 01:22:46;;;;;;;3.60;2.92;;;13.90;99.90;;;;;;4178638;28;20025;-64
2023/05/12 01:25:03;;;;;;;3.08;2.55;;;14.00;99.90;;;;;;4184178;28;20053;-66
2023/05/12 01:27:04;;;;;;;3.28;2.33;;;14.00;99.90;;;;;;4176748;28;20041;-65
2023/05/12 01:29:06;;;;;;;3.60;2.70;;;14.00;99.90;;;;;;4185540;28;20033;-66
2023/05/12 01:31:08;;;;;;;4.13;2.88;;;14.00;99.90;;;;;;4177679;28;20037;-65
2023/05/12 01:33:09;;;;;;;3.73;2.33;;;14.00;99.90;;;;;;4188561;28;20036;-64
2023/05/12 01:35:10;;;;;;;3.45;2.80;;;14.00;99.90;;;;;;4184552;28;20036;-67
2023/05/12 01:37:11;;;;;;;3.65;2.80;;;14.00;99.90;;;;;;4179637;28;20444;-65
2023/05/12 01:39:12;;;;;;;2.90;2.40;;;14.00;99.90;;;;;;4185022;28;20498;-65
2023/05/12 01:41:12;;;;;;;4.03;3.00;;;14.00;99.90;;;;;;4180983;28;20037;-65
2023/05/12 01:43:13;;;;;;;3.42;2.85;;;14.10;99.90;;;;;;4183439;28;20033;-65
2023/05/12 01:45:13;;;;;;;5.68;4.13;;;14.10;99.90;;;;;;4176137;28;20029;-66
2023/05/12 01:47:14;;;;;;;5.55;3.75;;;14.10;99.90;;;;;;4173855;28;20037;-65
2023/05/12 01:49:15;;;;;;;8.15;5.00;;;14.10;99.90;;;;;;4177844;28;20078;-65
2023/05/12 01:51:16;;;;;;;6.05;4.97;;;14.20;99.90;;;;;;4177848;28;20037;-65
2023/05/12 01:53:16;;;;;;;7.88;6.28;;;14.10;99.90;;;;;;4177686;28;20103;-65
2023/05/12 01:55:17;;;;;;;13.27;8.48;;;14.10;99.90;;;;;;4182567;28;21660;-66
2023/05/12 01:57:17;;;;;;;11.68;8.65;;;14.10;99.90;;;;;;4175720;28;20496;-66
2023/05/12 01:59:18;;;;;;;14.40;8.15;;;14.10;99.90;;;;;;4177513;28;20033;-66
2023/05/12 02:01:19;;;;;;;16.35;9.27;;;14.10;99.90;;;;;;4182276;28;20056;-66
2023/05/12 02:03:20;;;;;;;15.02;10.38;;;14.10;99.90;;;;;;4190766;28;20029;-65
2023/05/12 02:05:21;;;;;;;13.38;8.73;;;14.20;99.90;;;;;;4175460;28;20056;-66
2023/05/12 02:07:21;;;;;;;11.75;8.95;;;14.20;99.90;;;;;;4186294;28;20033;-66
2023/05/12 02:09:22;;;;;;;11.88;8.05;;;14.20;99.90;;;;;;4183230;28;20044;-65
2023/05/12 02:11:22;;;;;;;14.57;10.57;;;14.20;99.90;;;;;;4182804;28;20044;-65
2023/05/12 02:13:23;;;;;;;14.52;10.43;;;14.30;99.90;;;;;;4176276;28;20116;-66
2023/05/12 02:15:24;;;;;;;14.13;10.43;;;14.30;99.90;;;;;;4176865;28;21069;-66
2023/05/12 02:17:25;;;;;;;15.55;11.07;;;14.30;99.90;;;;;;4172519;28;20025;-65
2023/05/12 02:19:25;;;;;;;14.82;10.57;;;14.30;99.90;;;;;;4181510;28;20577;-67
2023/05/12 02:21:26;;;;;;;15.10;10.18;;;14.40;99.90;;;;;;4180119;28;20037;-67
2023/05/12 02:23:27;;;;;;;16.92;11.57;;;14.40;99.90;;;;;;4177308;28;20087;-66
2023/05/12 02:25:28;;;;;;;17.70;12.15;;;14.40;99.90;;;;;;4182057;28;20060;-66
2023/05/12 02:27:31;;;;;;;16.85;11.43;;;14.40;99.90;;;;;;4175516;28;20573;-66
2023/05/12 02:29:31;;;;;;;18.40;11.73;;;14.40;99.90;;;;;;4177845;28;20064;-66
2023/05/12 02:31:32;;;;;;;16.33;11.85;;;14.40;99.90;;;;;;4181222;28;20077;-66
2023/05/12 02:33:32;;;;;;;17.40;12.18;;;14.50;99.90;;;;;;4175632;28;20124;-65
2023/05/12 02:35:33;;;;;;;18.75;12.88;;;14.50;99.90;;;;;;4182720;28;20531;-65
2023/05/12 02:37:34;;;;;;;20.20;13.73;;;14.50;99.90;;;;;;4178474;28;20522;-66
2023/05/12 02:39:34;;;;;;;19.73;13.50;;;14.50;99.90;;;;;;4181652;28;20059;-65
2023/05/12 02:41:35;;;;;;;19.45;13.85;;;14.60;99.90;;;;;;4180452;28;20033;-66
2023/05/12 02:43:35;;;;;;;18.70;14.10;;;14.50;99.90;;;;;;4179256;28;20377;-66
2023/05/12 02:45:36;;;;;;;20.50;14.35;;;14.60;99.90;;;;;;4181143;28;20399;-66
2023/05/12 02:47:37;;;;;;;23.05;15.85;;;14.60;99.90;;;;;;4168355;28;20025;-66
2023/05/12 02:49:37;;;;;;;20.30;14.32;;;14.50;99.90;;;;;;4181628;28;20036;-66
2023/05/12 02:51:38;;;;;;;18.40;12.93;;;14.60;99.90;;;;;;4179529;28;20084;-66
2023/05/12 02:53:38;;;;;;;16.65;12.15;;;14.60;99.90;;;;;;4181662;28;20033;-65
2023/05/12 02:55:39;;;;;;;21.73;15.10;;;14.70;99.90;;;;;;4177956;28;20112;-66
2023/05/12 02:57:40;;;;;;;17.42;12.48;;;14.60;99.90;;;;;;4173728;28;20037;-65
2023/05/12 02:59:40;;;;;;;18.65;13.68;;;14.60;99.90;;;;;;4175468;28;20047;-66
2023/05/12 03:01:41;;;;;;;21.60;16.15;;;14.60;99.90;;;;;;4176213;28;20041;-66
2023/05/12 03:03:41;;;;;;;17.35;12.95;;;14.50;99.90;;;;;;4174737;28;20476;-66
2023/05/12 03:05:43;;;;;;;18.92;13.52;;;14.50;99.90;;;;;;4182656;28;20422;-66
2023/05/12 03:07:44;;;;;;;16.27;12.13;;;14.50;99.90;;;;;;4182578;28;20052;-66
2023/05/12 03:09:44;;;;;;;19.55;14.75;;;14.50;99.90;;;;;;4185847;28;20033;-66
2023/05/12 03:11:45;;;;;;;17.55;12.52;;;14.50;99.90;;;;;;4175996;28;20459;-66
2023/05/12 03:13:46;;;;;;;13.70;10.57;;;14.30;99.90;;;;;;4177947;28;20045;-66
2023/05/12 03:15:46;;;;;;;15.30;10.18;;;14.30;99.90;;;;;;4179579;28;20075;-65
2023/05/12 03:17:47;;;;;;;12.48;9.35;;;14.20;99.90;;;;;;4189433;28;20032;-66
2023/05/12 03:19:47;;;;;;;11.57;8.80;;;14.20;99.90;;;;;;4176999;28;20094;-66
2023/05/12 03:21:48;;;;;;;10.95;8.05;;;14.30;99.90;;;;;;4173335;28;20033;-66
2023/05/12 03:23:48;;;;;;;9.05;7.07;;;14.30;99.90;;;;;;4181779;28;20048;-66
2023/05/12 03:25:49;;;;;;;9.80;7.28;;;14.40;99.90;;;;;;4179486;28;20035;-67
2023/05/12 03:27:50;;;;;;;12.20;7.50;;;14.40;99.90;;;;;;4181010;28;20479;-66
2023/05/12 03:29:50;;;;;;;12.23;7.55;;;14.40;99.90;;;;;;4175273;28;20033;-66
2023/05/12 03:31:51;;;;;;;9.38;6.90;;;14.30;99.90;;;;;;4176608;28;20365;-66
2023/05/12 03:33:52;;;;;;;11.23;7.22;;;14.30;99.90;;;;;;4182396;28;20494;-66
2023/05/12 03:35:52;;;;;;;9.43;7.07;;;14.30;99.90;;;;;;4170010;28;20034;-65
2023/05/12 03:37:53;;;;;;;10.77;6.45;;;14.30;99.90;;;;;;4178178;28;20058;-66
2023/05/12 03:39:55;;;;;;;8.48;6.40;;;14.30;99.90;;;;;;4178383;28;20051;-66
2023/05/12 03:41:55;;;;;;;8.98;6.00;;;14.30;99.90;;;;;;4171459;28;20037;-66
2023/05/12 03:43:56;;;;;;;6.65;5.68;;;14.40;99.90;;;;;;4174776;28;20584;-67
2023/05/12 03:45:56;;;;;;;7.57;6.10;;;14.40;99.90;;;;;;4184674;28;20020;-67
2023/05/12 03:47:57;;;;;;;7.10;6.00;;;14.40;99.90;;;;;;4174622;28;20056;-66
2023/05/12 03:49:57;;;;;;;6.30;5.60;;;14.40;99.90;;;;;;4177327;28;20033;-65
2023/05/12 03:51:58;;;;;;;6.25;5.65;;;14.40;99.90;;;;;;4177123;28;20522;-66
2023/05/12 03:53:59;;;;;;;5.32;4.82;;;14.40;99.90;;;;;;4173209;28;20040;-66
2023/05/12 03:56:06;;;;;;;5.68;4.78;;;14.40;99.90;;;;;;4173579;28;20037;-66
2023/05/12 03:58:07;;;;;;;5.35;4.82;;;14.40;99.90;;;;;;4174275;28;20037;-66
2023/05/12 04:00:08;;;;;;;5.55;4.95;;;14.50;99.90;;;;;;4184574;28;20051;-67
2023/05/12 04:02:11;;;;;;;5.82;5.22;;;14.50;99.90;;;;;;4176200;28;20040;-66
2023/05/12 04:04:12;;;;;;;5.60;5.00;;;14.40;99.90;;;;;;4174281;28;20029;-66
2023/05/12 04:06:12;;;;;;;5.93;5.30;;;14.30;99.90;;;;;;4175289;28;20028;-66
2023/05/12 04:08:13;;;;;;;6.90;5.05;;;14.30;99.90;;;;;;4176189;28;20439;-66
2023/05/12 04:10:14;;;;;;;6.50;5.20;;;14.40;99.90;;;;;;4178061;28;20029;-66
2023/05/12 04:12:15;;;;;;;4.90;4.28;;;14.30;99.90;;;;;;4182977;28;20037;-65
2023/05/12 04:14:15;;;;;;;5.13;4.30;;;14.30;99.90;;;;;;4176609;28;20790;-66
2023/05/12 04:16:16;;;;;;;4.80;4.38;;;14.30;99.90;;;;;;4173849;28;20156;-66
2023/05/12 04:18:17;;;;;;;5.88;5.00;;;14.30;99.90;;;;;;4173990;28;20045;-66
2023/05/12 04:20:17;;;;;;;7.93;4.60;;;14.30;99.90;;;;;;4177867;28;20108;-65
2023/05/12 04:22:18;;;;;;;7.07;5.57;;;14.30;99.90;;;;;;4174793;28;20029;-66
2023/05/12 04:24:18;;;;;;;5.85;5.25;;;14.20;99.90;;;;;;4181351;28;20033;-66
2023/05/12 04:26:19;;;;;;;6.95;5.85;;;14.30;99.90;;;;;;4180394;28;20052;-66
2023/05/12 04:28:20;;;;;;;7.90;6.07;;;14.30;99.90;;;;;;4174900;28;20047;-67
2023/05/12 04:30:20;;;;;;;8.10;6.10;;;14.30;99.90;;;;;;4176435;28;20082;-67
2023/05/12 04:32:21;;;;;;;6.90;5.55;;;14.30;99.90;;;;;;4184622;28;20033;-67
2023/05/12 04:34:21;;;;;;;7.88;5.55;;;14.30;99.90;;;;;;4172768;28;20409;-67
2023/05/12 04:36:22;;;;;;;9.02;6.95;;;14.40;99.90;;;;;;4172678;28;20544;-67
2023/05/12 04:38:23;;;;;;;7.72;6.32;;;14.30;99.90;;;;;;4171669;28;20126;-66
2023/05/12 04:40:23;;;;;;;7.70;6.45;;;14.30;99.90;;;;;;4178619;28;20316;-66
2023/05/12 04:42:24;;;;;;;7.78;5.97;;;14.30;99.90;;;;;;4179418;28;20917;-65
2023/05/12 04:44:24;;;;;;;9.02;6.35;;;14.30;99.90;;;;;;4181808;28;20029;-66
2023/05/12 04:46:25;;;;;;;6.97;5.68;;;14.30;99.90;;;;;;4180809;28;20051;-68
2023/05/12 04:48:27;;;;;;;7.97;5.68;;;14.30;99.90;;;;;;4179329;28;20048;-68
2023/05/12 04:50:28;;;;;;;10.32;5.68;;;14.20;99.90;;;;;;4179817;28;20044;-68
2023/05/12 04:52:29;;;;;;;7.88;5.45;;;14.20;99.90;;;;;;4178426;28;20053;-68
2023/05/12 04:54:31;;;;;;;5.38;4.55;;;14.20;99.90;;;;;;4180140;28;20441;-68
2023/05/12 04:56:31;;;;;;;5.65;4.22;;;14.00;99.90;;;;;;4181029;28;20037;-68
2023/05/12 04:58:32;;;;;;;5.97;4.18;;;14.00;99.90;;;;;;4177334;28;20041;-68
2023/05/12 05:00:33;;;;;;;5.90;3.92;;;14.10;99.90;;;;;;4186461;28;20041;-68
2023/05/12 05:02:34;;;;;;;6.70;3.95;;;14.00;99.90;;;;;;4180660;28;20025;-67
2023/05/12 05:04:35;;;;;;;6.20;3.83;;;14.00;99.90;;;;;;4182247;28;20033;-68
2023/05/12 05:06:35;;;;;;;6.07;4.22;;;14.00;99.90;;;;;;4179099;28;20037;-68
2023/05/12 05:08:36;;;;;;;5.00;3.35;;;14.00;99.90;;;;;;4178508;28;20645;-67
2023/05/12 05:10:37;;;;;;;6.20;4.18;;;14.00;99.90;;;;;;4175477;28;20128;-68
2023/05/12 05:12:38;;;;;;;7.95;3.58;;;14.00;99.90;;;;;;4175839;28;20061;-68
2023/05/12 05:14:38;;;;;;;7.38;3.67;;;14.00;99.90;;;;;;4181377;28;20199;-68
2023/05/12 05:16:39;;;;;;;6.53;3.35;;;14.00;99.90;;;;;;4172727;28;20098;-68
2023/05/12 05:18:45;;;;;;;7.00;3.67;;;14.00;99.90;;;;;;4178536;28;20052;-68
2023/05/12 05:20:45;;;;;;;7.07;3.50;;;14.00;99.90;;;;;;4177040;28;20045;-63
2023/05/12 05:22:47;;;;;;;4.40;3.28;;;14.00;99.90;;;;;;4176905;28;20063;-63
2023/05/12 05:24:47;;;;;;;3.83;2.90;;;14.10;99.90;;;;;;4177446;28;20511;-63
2023/05/12 05:26:48;;;;;;;6.85;3.55;;;14.00;99.90;;;;;;4175387;28;20061;-67
2023/05/12 05:28:49;;;;;;;8.35;3.55;;;14.00;99.90;;;;;;4173983;28;20036;-67
2023/05/12 05:30:49;;;;;;;4.85;3.22;;;13.90;99.90;;;;;;4171226;28;20045;-65
2023/05/12 05:32:50;;;;;;;3.80;2.60;;;14.00;99.90;;;;;;4175603;28;20037;-64
2023/05/12 05:34:51;;;;;;;5.35;2.97;;;14.10;99.90;;;;;;4180690;28;20033;-68
2023/05/12 05:36:51;;;;;;;3.40;2.50;;;14.00;99.90;;;;;;4177104;28;20396;-68
2023/05/12 05:38:52;;;;;;;2.78;2.47;;;14.10;99.90;;;;;;4184616;28;20483;-68
2023/05/12 05:40:52;;;;;;;3.65;2.50;;;14.10;99.90;;;;;;4185903;28;20403;-68
2023/05/12 05:42:53;;;;;;;3.97;2.40;;;14.10;99.90;;;;;;4176822;28;20025;-67
2023/05/12 05:44:53;;;;;;;2.78;2.47;;;14.20;99.90;;;;;;4182675;28;20048;-67
2023/05/12 05:46:54;;;;;;;4.30;3.00;;;14.10;99.90;;;;;;4179300;28;20447;-68
2023/05/12 05:48:55;;;;;;;4.78;2.90;;;14.20;99.90;;;;;;4183169;28;20068;-66
2023/05/12 05:50:55;;;;;;;3.85;2.72;;;14.20;99.90;;;;;;4179988;28;20030;-66
2023/05/12 05:52:56;;;;;;;4.13;2.72;;;14.20;99.90;;;;;;4173479;28;20542;-68
2023/05/12 05:54:56;;;;;;;4.45;3.10;;;14.20;99.90;;;;;;4176277;28;20079;-68
2023/05/12 05:56:59;;;;;;;3.05;2.40;;;14.30;99.90;;;;;;4181635;28;20485;-68
2023/05/12 05:59:02;;;;;;;3.10;2.35;;;14.30;99.90;;;;;;4174543;28;20366;-69
2023/05/12 06:01:03;;;;;;;5.47;2.80;;;14.30;99.90;;;;;;4177658;28;20025;-68
2023/05/12 06:03:03;;;;;;;2.85;2.50;;;14.40;99.90;;;;;;4175051;28;20128;-68
2023/05/12 06:05:05;;;;;;;3.35;2.58;;;14.40;99.90;;;;;;4174407;28;20065;-69
2023/05/12 06:07:06;;;;;;;2.92;2.40;;;14.40;99.90;;;;;;4172359;28;20040;-69
2023/05/12 06:09:08;;;;;;;3.65;2.88;;;14.40;99.90;;;;;;4172982;28;20426;-68
2023/05/12 06:11:08;;;;;;;2.90;2.40;;;14.50;99.90;;;;;;4177777;28;20036;-68
2023/05/12 06:13:09;;;;;;;4.38;2.92;;;14.50;99.90;;;;;;4175295;28;20041;-68
2023/05/12 06:15:10;;;;;;;4.80;2.50;;;14.50;99.90;;;;;;4181937;28;20238;-69
2023/05/12 06:17:11;;;;;;;5.72;2.60;;;14.50;99.90;;;;;;4176784;28;20037;-68
2023/05/12 06:19:11;;;;;;;4.72;2.90;;;14.60;99.90;;;;;;4179659;28;20611;-68
2023/05/12 06:21:12;;;;;;;3.25;2.80;;;14.60;99.90;;;;;;4177338;28;20113;-67
2023/05/12 06:23:12;;;;;;;3.97;2.63;;;14.60;99.90;;;;;;4172450;28;20083;-69
2023/05/12 06:25:13;;;;;;;5.75;2.85;;;14.60;99.90;;;;;;4176959;28;20029;-68
2023/05/12 06:27:14;;;;;;;3.30;2.40;;;14.60;99.90;;;;;;4184614;28;20410;-69
2023/05/12 06:29:15;;;;;;;2.83;2.30;;;14.60;99.90;;;;;;4176436;28;20041;-68
2023/05/12 06:31:15;;;;;;;4.78;2.40;;;14.70;99.90;;;;;;4175619;28;20041;-68
2023/05/12 06:33:16;;;;;;;4.10;2.78;;;14.70;99.90;;;;;;4179974;28;20048;-68
2023/05/12 06:35:17;;;;;;;3.15;2.22;;;14.60;99.90;;;;;;4179692;28;20041;-68
2023/05/12 06:37:17;;;;;;;3.55;2.13;;;14.70;99.90;;;;;;4173148;28;20041;-68
2023/05/12 06:39:18;;;;;;;4.55;2.85;;;14.70;99.90;;;;;;4179152;28;20114;-68
2023/05/12 06:41:18;;;;;;;3.55;2.63;;;14.80;99.90;;;;;;4175985;28;20025;-69
2023/05/12 06:43:19;;;;;;;3.97;2.80;;;14.80;99.90;;;;;;4181001;28;20033;-68
2023/05/12 06:45:22;;;;;;;3.80;2.72;;;15.00;99.90;;;;;;4173562;28;24514;-69
2023/05/12 06:47:22;;;;;;;;;;;15.10;99.90;;;;;;4170812;28;20029;-69
2023/05/12 06:49:23;;;;;;;3.67;2.13;;;15.20;99.90;;;;;;4177008;28;19909;-69
2023/05/12 06:51:23;;;;;;;5.03;2.30;;;15.30;99.90;;;;;;4175142;28;20065;-68
2023/05/12 06:53:24;;;;;;;5.53;2.65;;;15.30;99.90;;;;;;4177379;28;20029;-68
2023/05/12 06:55:25;;;;;;;2.83;2.15;;;15.30;99.90;;;;;;4173929;28;20040;-68
2023/05/12 06:57:25;;;;;;;3.25;2.25;;;15.40;99.90;;;;;;4174752;28;20040;-69
2023/05/12 06:59:26;;;;;;;3.63;2.33;;;15.40;99.90;;;;;;4172619;28;20045;-69
2023/05/12 07:01:28;;;;;;;4.95;2.42;;;15.40;99.90;;;;;;4171040;28;20064;-68
2023/05/12 07:03:31;;;;;;;3.65;2.38;;;15.40;99.90;;;;;;4173953;28;20392;-69
2023/05/12 07:05:32;;;;;;;3.83;2.28;;;15.40;99.90;;;;;;4174100;28;20249;-68
2023/05/12 07:07:32;;;;;;;3.25;2.22;;;15.40;99.90;;;;;;4171235;28;20064;-70
2023/05/12 07:09:33;;;;;;;2.88;2.38;;;15.40;99.90;;;;;;4178049;28;20118;-68
2023/05/12 07:11:34;;;;;;;2.35;2.10;;;15.40;99.90;;;;;;4170336;28;20037;-69
2023/05/12 07:13:35;;;;;;;3.60;2.00;;;15.40;99.90;;;;;;4170820;28;20045;-69
2023/05/12 07:15:35;;;;;;;3.10;2.10;;;15.40;99.90;;;;;;4168110;28;20125;-68
2023/05/12 07:17:36;;;;;;;5.03;2.30;;;15.30;99.90;;;;;;4171094;28;20245;-69
2023/05/12 07:19:38;;;;;;;3.47;2.63;;;15.30;99.90;;;;;;4172784;28;20025;-69
2023/05/12 07:21:39;;;;;;;2.92;2.30;;;15.20;99.90;;;;;;4170282;28;20061;-69
2023/05/12 07:23:39;;;;;;;2.95;2.00;;;15.20;99.90;;;;;;4171733;28;20029;-68
2023/05/12 07:25:40;;;;;;;2.63;2.10;;;15.30;99.90;;;;;;4173131;28;20033;-69
2023/05/12 07:27:41;;;;;;;3.75;2.22;;;15.30;99.90;;;;;;4173375;28;20098;-69
2023/05/12 07:29:41;;;;;;;6.18;2.42;;;15.30;99.90;;;;;;4174040;28;20025;-69
2023/05/12 07:31:42;;;;;;;3.47;2.33;;;15.30;99.90;;;;;;4175403;28;20442;-69
2023/05/12 07:33:42;;;;;;;3.30;2.30;;;15.40;99.90;;;;;;4173143;28;20144;-69
2023/05/12 07:35:44;;;;;;;3.63;2.13;;;15.30;99.90;;;;;;4173045;28;20043;-69
2023/05/12 07:37:45;;;;;;;3.25;2.05;;;15.30;99.90;;;;;;4171305;28;20095;-70
2023/05/12 07:39:45;;;;;;;2.85;2.30;;;15.20;99.90;;;;;;4168925;28;20033;-69
2023/05/12 07:41:46;;;;;;;2.70;2.28;;;15.20;99.90;;;;;;4172247;28;20021;-69
2023/05/12 07:43:46;;;;;;;3.33;2.08;;;15.20;99.90;;;;;;4174394;28;20373;-70
2023/05/12 07:45:47;;;;;;;2.60;2.20;;;15.20;99.90;;;;;;4169873;28;20811;-70
2023/05/12 07:47:49;;;;;;;2.50;1.98;;;15.20;99.90;;;;;;4172610;28;20029;-70
2023/05/12 07:49:50;;;;;;;3.40;2.10;;;15.20;99.90;;;;;;4173339;28;20090;-70
2023/05/12 07:51:50;;;;;;;3.85;2.13;;;15.20;99.90;;;;;;4172964;28;20480;-70
2023/05/12 07:53:51;;;;;;;3.55;2.28;;;15.20;99.90;;;;;;4174046;28;20098;-69
2023/05/12 07:55:51;;;;;;;2.22;1.83;;;15.10;99.90;;;;;;4169878;28;20041;-70
2023/05/12 07:57:52;;;;;;;3.17;1.90;;;15.20;99.90;;;;;;4169740;28;20037;-68
2023/05/12 07:59:53;;;;;;;3.50;2.05;;;15.20;99.90;;;;;;4174613;28;20047;-68
2023/05/12 08:01:53;;;;;;;7.22;2.13;;;15.10;99.90;;;;;;4170541;28;20041;-69
2023/05/12 08:03:54;;;;;;;2.70;2.08;;;15.20;99.90;;;;;;4169243;28;20044;-69
2023/05/12 08:05:54;;;;;;;3.03;1.90;;;15.20;99.90;;;;;;4169882;28;20037;-69
2023/05/12 08:07:55;;;;;;;2.08;1.70;;;15.30;99.90;;;;;;4171966;28;20036;-69
2023/05/12 08:09:56;;;;;;;3.35;2.10;;;15.40;99.90;;;;;;4167894;28;20114;-70
2023/05/12 08:11:56;;;;;;;2.80;1.80;;;15.40;99.90;;;;;;4167964;28;20025;-69
2023/05/12 08:13:57;;;;;;;2.22;1.73;;;15.30;99.90;;;;;;4176039;28;20124;-69
2023/05/12 08:15:57;;;;;;;3.88;2.08;;;15.40;99.90;;;;;;4168934;28;20037;-69
2023/05/12 08:17:58;;;;;;;5.32;1.73;;;15.40;99.90;;;;;;4175734;28;20757;-70
2023/05/12 08:19:58;;;;;;;3.85;2.00;;;15.40;99.90;;;;;;4173726;28;20124;-69
2023/05/12 08:21:59;;;;;;;4.90;2.28;;;15.40;99.90;;;;;;4170342;28;20029;-70
2023/05/12 08:23:59;;;;;;;2.17;1.75;;;15.40;99.90;;;;;;4172026;28;20045;-70
2023/05/12 08:26:00;;;;;;;3.80;2.20;;;15.50;99.90;;;;;;4171635;28;20099;-69
2023/05/12 08:28:01;;;;;;;4.20;2.20;;;15.50;99.90;;;;;;4174326;28;20048;-68
2023/05/12 08:30:01;;;;;;;6.60;2.50;;;15.50;99.90;;;;;;4169164;28;20346;-69
2023/05/12 08:32:02;;;;;;;4.75;2.45;;;15.50;99.90;;;;;;4168566;28;20029;-69
2023/05/12 08:34:03;;;;;;;4.50;2.75;;;15.50;99.90;;;;;;4172117;28;20041;-69
2023/05/12 08:36:04;;;;;;;6.50;3.22;;;15.50;99.90;;;;;;4170709;28;20021;-69
2023/05/12 08:38:05;;;;;;;6.63;3.17;;;15.50;99.90;;;;;;4169575;28;20373;-69
2023/05/12 08:40:16;;;;;;;4.82;2.97;;;15.50;99.90;;;;;;4174055;28;20796;-71
2023/05/12 08:42:30;;;;;;;5.32;2.58;;;15.60;99.90;;;;;;4172081;28;20033;-71
2023/05/12 08:44:31;;;;;;;5.03;2.47;;;15.60;99.90;;;;;;4172669;28;20044;-69
2023/05/12 08:46:32;;;;;;;5.97;2.38;;;15.60;99.90;;;;;;4171194;28;20078;-70
2023/05/12 08:48:34;;;;;;;4.28;2.70;;;15.60;99.90;;;;;;4170219;28;20902;-70
2023/05/12 08:50:37;;;;;;;3.85;2.25;;;15.60;99.90;;;;;;4174820;28;20033;-70
2023/05/12 08:52:38;;;;;;;2.10;1.77;;;15.70;99.90;;;;;;4172008;28;20048;-70
2023/05/12 08:54:39;;;;;;;4.28;2.08;;;15.70;99.90;;;;;;4169265;28;20083;-70
2023/05/12 08:56:41;;;;;;;5.15;2.00;;;15.80;99.90;;;;;;4168295;28;20026;-69
2023/05/12 08:58:43;;;;;;;3.47;2.07;;;15.90;99.90;;;;;;4170516;28;20573;-70
2023/05/12 09:00:44;;;;;;;2.38;2.00;;;15.90;99.90;;;;;;4169200;28;20033;-70
2023/05/12 09:02:46;;;;;;;2.35;1.75;;;16.00;99.90;;;;;;4169368;28;20037;-70
2023/05/12 09:04:47;;;;;;;6.63;2.20;;;16.10;99.90;;;;;;4175234;28;20033;-70
2023/05/12 09:06:48;;;;;;;3.15;2.03;;;16.10;99.90;;;;;;4170530;28;20049;-70
2023/05/12 09:08:48;;;;;;;1.60;1.48;;;16.20;99.90;;;;;;4176202;28;20040;-70
2023/05/12 09:10:49;;;;;;;3.50;1.95;;;16.30;99.90;;;;;;4169658;28;20032;-71
2023/05/12 09:12:53;;;;;;;3.15;1.85;;;16.30;99.90;;;;;;4170646;28;20033;-70
2023/05/12 09:15:04;;;;;;;4.38;2.05;;;16.40;99.90;;;;;;4173394;28;20615;-70
2023/05/12 09:17:05;;;;;;;5.28;2.45;;;16.50;99.90;;;;;;4170722;28;20068;-70
2023/05/12 09:19:06;;;;;;;3.53;2.47;;;16.50;99.90;;;;;;4172857;28;20043;-69
2023/05/12 09:21:06;;;;;;;4.57;2.90;;;16.50;99.90;;;;;;4163361;28;20044;-70
2023/05/12 09:23:14;;;;;;;6.43;2.53;;;16.40;99.90;;;;;;4166478;28;20833;-70
2023/05/12 09:25:20;;;;;;;3.63;2.40;;;16.50;99.90;;;;;;4171515;28;20068;-69
2023/05/12 09:27:28;;;;;;;6.65;3.40;;;16.50;99.90;;;;;;4171404;28;20041;-70
2023/05/12 09:29:29;;;;;;;6.72;3.42;;;16.50;99.90;;;;;;4174475;28;20492;-70
2023/05/12 09:31:30;;;;;;;4.47;2.75;;;16.60;99.90;;;;;;4171028;28;20128;-70
2023/05/12 09:33:33;;;;;;;3.95;2.55;;;16.70;99.90;;;;;;4176330;28;20068;-70
2023/05/12 09:35:42;;;;;;;5.30;2.72;;;16.70;99.90;;;;;;4172431;28;20032;-69
2023/05/12 09:37:45;;;;;;;6.10;2.60;;;16.70;99.90;;;;;;4168076;28;20554;-71
2023/05/12 09:39:46;;;;;;;5.85;2.80;;;16.60;99.90;;;;;;4169876;28;20037;-71
2023/05/12 09:49:13;;;;;;;6.18;2.45;;;16.60;99.90;;;;;;4171764;28;20083;-70
2023/05/12 09:51:17;;;;;;;3.78;2.80;;;16.70;99.90;;;;;;4172594;28;20053;-71
2023/05/12 09:53:21;;;;;;;4.45;2.38;;;16.70;99.90;;;;;;4172302;28;20037;-70
2023/05/12 09:55:22;;;;;;;5.60;3.20;;;16.60;99.90;;;;;;4170325;28;20040;-70
2023/05/12 09:57:25;;;;;;;4.45;2.22;;;16.60;99.90;;;;;;4174067;28;20624;-70
2023/05/12 09:59:33;;;;;;;4.78;2.20;;;16.60;99.90;;;;;;4171789;28;20045;-70
2023/05/12 10:01:34;;;;;;;3.80;2.53;;;16.60;99.90;;;;;;4171096;28;20033;-70
2023/05/12 10:03:36;;;;;;;5.35;2.42;;;16.70;99.90;;;;;;4173197;28;20402;-70
2023/05/12 10:05:48;;;;;;;4.22;2.50;;;16.70;99.90;;;;;;4172112;28;20060;-71
2023/05/12 10:07:50;;;;;;;4.38;2.13;;;16.80;99.90;;;;;;4175364;28;20053;-70
2023/05/12 10:09:53;;;;;;;7.25;3.00;;;16.90;99.90;;;;;;4171403;28;20629;-71
2023/05/12 10:11:55;;;;;;;4.57;2.70;;;16.80;99.90;;;;;;4173671;28;20048;-71
2023/05/12 10:13:57;;;;;;;4.97;2.53;;;16.80;99.90;;;;;;4166389;28;20045;-70
2023/05/12 10:15:59;;;;;;;3.83;2.42;;;16.90;99.90;;;;;;4169232;28;20037;-71
2023/05/12 10:18:00;;;;;;;4.65;2.45;;;17.00;99.90;;;;;;4169200;28;20045;-71
2023/05/12 10:20:05;;;;;;;5.35;3.92;;;17.00;99.90;;;;;;4171159;28;20037;-71
2023/05/12 10:22:09;;;;;;;7.15;3.45;;;17.00;99.90;;;;;;4171917;28;20048;-71
2023/05/12 10:24:13;;;;;;;5.82;3.70;;;17.00;99.90;;;;;;4171213;28;20172;-70
2023/05/12 10:26:15;;;;;;;7.13;2.90;;;17.00;99.90;;;;;;4166594;28;20037;-71
2023/05/12 10:28:16;;;;;;;6.25;2.90;;;17.00;99.90;;;;;;4173433;28;20033;-71
2023/05/12 10:30:17;;;;;;;3.55;2.63;;;17.00;99.90;;;;;;4170065;28;20079;-71
2023/05/12 10:32:17;;;;;;;8.27;2.90;;;16.90;99.90;;;;;;4169646;28;20037;-71
2023/05/12 10:34:18;;;;;;;4.30;2.40;;;16.90;99.90;;;;;;4169696;28;20377;-71
2023/05/12 10:36:19;;;;;;;6.53;2.67;;;16.90;99.90;;;;;;4171652;28;20057;-71
2023/05/12 10:38:19;;;;;;;5.25;2.42;;;17.00;99.90;;;;;;4173387;28;20889;-71